Time;durP1;ratioP1;P1;durP2;ratioP2;P2;SDS_P1;SDS_P2;PMS_P1;PMS_P2;Temp;Humidity;BMP_temperature;BMP_pressure;BME280_temperature;BME280_humidity;BME280_pressure;Samples;Min_cycle;Max_cycle;Signal;HPM_P1;HPM_P2
2021/11/09 00:01:54;;;;;;;15.30;13.30;;;3.50;99.90;;;;;;5011889;28;20684;-65
2021/11/09 00:04:23;;;;;;;18.60;11.20;;;3.40;99.90;;;;;;5005622;28;20194;-64
2021/11/09 00:06:59;;;;;;;19.13;12.47;;;3.40;99.90;;;;;;5011194;28;20437;-64
2021/11/09 00:09:28;;;;;;;17.37;13.03;;;3.30;99.90;;;;;;5012090;28;20460;-65
2021/11/09 00:11:53;;;;;;;22.73;13.80;;;3.30;99.90;;;;;;5011796;28;20841;-65
2021/11/09 00:14:19;;;;;;;28.07;13.27;;;3.30;99.90;;;;;;5012224;28;20433;-65
2021/11/09 00:16:44;;;;;;;15.63;13.93;;;3.30;99.90;;;;;;5010008;28;20182;-64
2021/11/09 00:19:10;;;;;;;21.37;13.67;;;3.20;99.90;;;;;;5011561;28;20198;-65
2021/11/09 00:21:35;;;;;;;17.20;12.00;;;3.20;99.90;;;;;;5011799;28;20236;-65
2021/11/09 00:24:01;;;;;;;19.77;13.53;;;3.20;99.90;;;;;;5011651;28;20270;-65
2021/11/09 00:26:28;;;;;;;16.37;11.43;;;3.20;99.90;;;;;;5011574;28;20175;-65
2021/11/09 00:28:55;;;;;;;20.67;12.73;;;3.20;99.90;;;;;;5011490;28;20187;-64
2021/11/09 00:31:21;;;;;;;20.27;11.47;;;3.10;99.90;;;;;;5011681;28;20518;-64
2021/11/09 00:33:47;;;;;;;20.20;12.87;;;3.10;99.90;;;;;;5012048;28;20433;-65
2021/11/09 00:36:12;;;;;;;21.50;12.07;;;3.00;99.90;;;;;;5011367;28;20430;-64
2021/11/09 00:38:38;;;;;;;20.10;12.77;;;3.00;99.90;;;;;;5011028;28;20214;-65
2021/11/09 00:41:05;;;;;;;16.70;13.13;;;3.00;99.90;;;;;;5006966;28;20550;-64
2021/11/09 00:43:31;;;;;;;19.37;14.33;;;2.90;99.90;;;;;;5008570;28;20198;-64
2021/11/09 00:45:56;;;;;;;20.83;13.27;;;3.00;99.90;;;;;;5011262;28;20954;-65
2021/11/09 00:48:22;;;;;;;18.87;13.57;;;3.00;99.90;;;;;;5011612;28;20449;-64
2021/11/09 00:50:49;;;;;;;18.80;12.30;;;3.00;99.90;;;;;;5011363;28;20175;-64
2021/11/09 00:53:17;;;;;;;17.53;13.17;;;3.00;99.90;;;;;;5011810;28;20663;-64
2021/11/09 00:55:44;;;;;;;20.53;12.80;;;3.00;99.90;;;;;;5011186;28;20433;-64
2021/11/09 00:58:11;;;;;;;19.20;12.93;;;3.00;99.90;;;;;;5011475;28;20456;-65
2021/11/09 01:00:37;;;;;;;21.93;13.87;;;3.00;99.90;;;;;;5011405;28;20430;-65
2021/11/09 01:03:05;;;;;;;19.93;13.40;;;3.00;99.90;;;;;;5011796;28;20469;-65
2021/11/09 01:05:31;;;;;;;19.53;13.77;;;3.10;99.90;;;;;;5011217;28;20955;-65
2021/11/09 01:08:00;;;;;;;17.40;12.77;;;3.00;99.90;;;;;;5009450;28;20513;-64
2021/11/09 01:10:28;;;;;;;19.43;13.30;;;3.10;99.90;;;;;;5011492;28;20947;-64
2021/11/09 01:12:55;;;;;;;23.07;12.87;;;3.00;99.90;;;;;;5011215;28;20504;-65
2021/11/09 01:15:22;;;;;;;17.10;12.50;;;3.00;99.90;;;;;;5011743;28;20568;-64
2021/11/09 01:17:48;;;;;;;16.90;12.80;;;3.00;99.90;;;;;;5012393;28;20445;-65
2021/11/09 01:20:16;;;;;;;18.60;13.70;;;3.00;99.90;;;;;;5015314;28;20437;-64
2021/11/09 01:22:45;;;;;;;22.20;14.27;;;3.10;99.90;;;;;;5014983;28;20201;-64
2021/11/09 01:25:10;;;;;;;16.93;12.27;;;3.10;99.90;;;;;;5015265;28;20456;-64
2021/11/09 01:27:36;;;;;;;20.73;12.30;;;3.20;99.90;;;;;;5014027;28;21153;-64
2021/11/09 01:30:05;;;;;;;18.70;13.23;;;3.20;99.90;;;;;;5015010;28;20298;-65
2021/11/09 01:32:31;;;;;;;18.27;13.40;;;3.20;99.90;;;;;;5014228;28;20704;-64
2021/11/09 01:34:57;;;;;;;16.10;12.50;;;3.30;99.90;;;;;;5029604;28;20433;-65
2021/11/09 01:37:23;;;;;;;15.20;11.90;;;3.30;99.90;;;;;;5013854;28;20198;-65
2021/11/09 01:39:48;;;;;;;16.33;13.07;;;3.30;99.90;;;;;;5014323;28;20434;-65
2021/11/09 01:42:14;;;;;;;16.67;13.80;;;3.20;99.90;;;;;;5013854;28;20660;-64
2021/11/09 01:44:40;;;;;;;16.70;12.37;;;3.30;99.90;;;;;;5014166;28;20186;-65
2021/11/09 01:47:05;;;;;;;20.07;12.93;;;3.30;99.90;;;;;;5014410;28;20560;-64
2021/11/09 01:49:31;;;;;;;22.00;13.73;;;3.10;99.90;;;;;;5013830;28;20178;-64
2021/11/09 01:51:58;;;;;;;17.40;13.23;;;3.20;99.90;;;;;;5013858;28;20958;-65
2021/11/09 01:54:23;;;;;;;17.03;12.63;;;3.20;99.90;;;;;;5014544;28;20703;-65
2021/11/09 01:56:50;;;;;;;17.17;13.37;;;3.20;99.90;;;;;;5014328;28;20434;-64
2021/11/09 01:59:15;;;;;;;17.30;12.37;;;3.20;99.90;;;;;;5014119;28;20616;-65
2021/11/09 02:01:41;;;;;;;14.73;11.80;;;3.20;99.90;;;;;;5014173;28;20469;-65
2021/11/09 02:04:09;;;;;;;17.63;12.33;;;3.20;99.90;;;;;;5014459;28;20186;-65
2021/11/09 02:06:35;;;;;;;18.50;12.93;;;3.20;99.90;;;;;;5012564;28;20962;-64
2021/11/09 02:09:06;;;;;;;16.43;11.87;;;3.30;99.90;;;;;;5014157;28;20457;-65
2021/11/09 02:11:32;;;;;;;17.53;12.23;;;3.20;99.90;;;;;;5013867;28;20512;-65
2021/11/09 02:13:57;;;;;;;20.93;13.20;;;3.30;99.90;;;;;;5014270;28;20437;-65
2021/11/09 02:16:23;;;;;;;16.90;12.43;;;3.30;99.90;;;;;;5013739;28;20167;-64
2021/11/09 02:18:49;;;;;;;21.50;12.60;;;3.40;99.90;;;;;;5014081;28;20281;-65
2021/11/09 02:21:15;;;;;;;21.60;13.77;;;3.40;99.90;;;;;;5013684;28;20179;-65
2021/11/09 02:23:43;;;;;;;20.87;14.23;;;3.40;99.90;;;;;;5013597;28;20772;-65
2021/11/09 02:26:14;;;;;;;16.17;12.60;;;3.30;99.90;;;;;;5014056;28;20636;-65
2021/11/09 02:28:40;;;;;;;18.93;12.47;;;3.20;99.90;;;;;;5012233;28;20496;-65
2021/11/09 02:31:06;;;;;;;19.60;14.70;;;3.30;99.90;;;;;;5013609;28;20516;-64
2021/11/09 02:33:33;;;;;;;14.27;11.40;;;3.30;99.90;;;;;;5013780;28;20521;-64
2021/11/09 02:35:58;;;;;;;19.40;13.57;;;3.30;99.90;;;;;;5013432;28;20422;-65
2021/11/09 02:38:24;;;;;;;18.53;13.77;;;3.40;99.90;;;;;;5013189;28;20535;-65
2021/11/09 02:40:50;;;;;;;15.30;12.60;;;3.40;99.90;;;;;;5013433;28;20171;-64
2021/11/09 02:43:17;;;;;;;18.77;13.10;;;3.30;99.90;;;;;;5013767;28;20183;-64
2021/11/09 02:48:49;;;;;;;14.73;12.50;;;3.60;99.90;;;;;;5013507;28;20457;-65
2021/11/09 02:51:19;;;;;;;14.57;11.80;;;3.50;99.90;;;;;;5013266;28;20429;-65
2021/11/09 02:54:01;;;;;;;15.47;10.90;;;3.60;99.90;;;;;;5013377;28;20789;-65
2021/11/09 02:56:34;;;;;;;19.00;14.73;;;3.60;99.90;;;;;;5012878;28;20461;-64
2021/11/09 03:01:44;;;;;;;18.37;14.00;;;3.60;99.90;;;;;;5008831;28;21023;-65
2021/11/09 03:04:37;;;;;;;14.13;12.23;;;3.70;99.90;;;;;;5012872;28;20179;-64
2021/11/09 03:07:08;;;;;;;16.90;12.07;;;3.70;99.90;;;;;;5012612;28;20473;-64
2021/11/09 03:12:02;;;;;;;19.03;13.30;;;3.70;99.90;;;;;;4997458;28;20457;-65
2021/11/09 03:14:28;;;;;;;17.17;11.43;;;3.70;99.90;;;;;;5012942;28;20293;-65
2021/11/09 03:16:56;;;;;;;16.60;12.70;;;3.70;99.90;;;;;;5012449;28;20874;-65
2021/11/09 03:46:34;;;;;;;15.23;12.03;;;3.30;99.90;;;;;;5006562;28;20424;-64
2021/11/09 03:49:01;;;;;;;12.03;10.83;;;3.20;99.90;;;;;;5010579;28;20456;-65
2021/11/09 03:51:27;;;;;;;17.43;11.80;;;3.10;99.90;;;;;;5011958;28;20457;-65
2021/11/09 03:53:58;;;;;;;17.23;13.07;;;3.10;99.90;;;;;;5010308;28;20843;-64
2021/11/09 03:56:28;;;;;;;17.73;11.53;;;3.10;99.90;;;;;;5012263;28;20167;-65
2021/11/09 03:58:55;;;;;;;19.03;10.40;;;3.00;99.90;;;;;;5011912;28;20445;-65
2021/11/09 04:01:26;;;;;;;15.50;10.70;;;2.90;99.90;;;;;;5012545;28;20472;-65
2021/11/09 04:04:13;;;;;;;17.33;11.63;;;2.90;99.90;;;;;;5012270;28;20777;-65
2021/11/09 04:06:47;;;;;;;16.07;11.13;;;2.80;99.90;;;;;;5001557;28;20922;-64
2021/11/09 04:09:32;;;;;;;14.73;9.77;;;2.80;99.90;;;;;;5011574;28;20449;-65
2021/11/09 04:12:10;;;;;;;13.73;10.70;;;2.70;99.90;;;;;;5011838;28;20461;-65
2021/11/09 04:14:46;;;;;;;19.83;11.30;;;2.70;99.90;;;;;;5011581;28;20433;-65
2021/11/09 04:17:31;;;;;;;15.27;10.30;;;2.70;99.90;;;;;;5011597;28;20425;-64
2021/11/09 04:20:05;;;;;;;16.83;10.80;;;2.70;99.90;;;;;;5011924;28;20425;-65
2021/11/09 04:27:51;;;;;;;16.30;11.50;;;2.60;99.90;;;;;;5011105;28;20800;-65
2021/11/09 04:36:00;;;;;;;12.53;9.80;;;2.60;99.90;;;;;;5006672;28;20457;-64
2021/11/09 05:02:39;;;;;;;12.80;9.47;;;2.40;99.90;;;;;;5005159;28;20440;-64
2021/11/09 05:10:33;;;;;;;14.43;9.40;;;2.40;99.90;;;;;;5015302;28;20989;-64
2021/11/09 05:12:59;;;;;;;15.37;10.30;;;2.30;99.90;;;;;;5015255;28;20465;-65
2021/11/09 05:15:25;;;;;;;15.23;10.67;;;2.30;99.90;;;;;;5015203;28;20595;-64
2021/11/09 05:17:50;;;;;;;13.03;9.80;;;2.30;99.90;;;;;;5013413;28;20540;-64
2021/11/09 05:20:16;;;;;;;12.33;9.90;;;2.20;99.90;;;;;;5014822;28;20182;-65
2021/11/09 05:22:42;;;;;;;20.70;8.83;;;2.20;99.90;;;;;;5015244;28;20206;-64
2021/11/09 05:25:08;;;;;;;13.70;9.27;;;2.20;99.90;;;;;;5014898;28;20690;-63
2021/11/09 05:27:33;;;;;;;14.03;8.87;;;2.20;99.90;;;;;;5014351;28;20206;-64
2021/11/09 05:29:59;;;;;;;13.50;8.50;;;2.20;99.90;;;;;;4999079;28;20437;-64
2021/11/09 05:32:25;;;;;;;18.63;9.37;;;2.20;99.90;;;;;;5004072;28;20527;-64
2021/11/09 05:34:51;;;;;;;10.30;7.87;;;2.20;99.90;;;;;;5015059;28;20433;-64
2021/11/09 05:37:21;;;;;;;13.83;8.90;;;2.20;99.90;;;;;;5013138;28;20211;-64
2021/11/09 05:39:50;;;;;;;12.83;10.20;;;2.20;99.90;;;;;;5014610;28;20171;-64
2021/11/09 05:42:16;;;;;;;18.37;9.13;;;2.20;99.90;;;;;;5014614;28;20938;-64
2021/11/09 05:44:44;;;;;;;16.80;9.67;;;2.10;99.90;;;;;;5014776;28;20438;-64
2021/11/09 05:47:10;;;;;;;16.73;9.20;;;2.20;99.90;;;;;;5014696;28;20425;-64
2021/11/09 05:49:36;;;;;;;17.27;9.53;;;2.20;99.90;;;;;;5014389;28;20433;-64
2021/11/09 05:52:02;;;;;;;14.60;9.53;;;2.10;99.90;;;;;;5014297;28;20858;-64
2021/11/09 05:54:28;;;;;;;14.27;9.13;;;2.10;99.90;;;;;;5014759;28;20270;-63
2021/11/09 05:56:54;;;;;;;10.17;8.93;;;2.10;99.90;;;;;;5013194;28;20429;-64
2021/11/09 05:59:20;;;;;;;14.90;8.47;;;2.10;99.90;;;;;;5010662;28;20501;-64
2021/11/09 06:01:47;;;;;;;15.93;9.93;;;2.00;99.90;;;;;;5015895;28;20816;-64
2021/11/09 06:04:13;;;;;;;13.80;8.63;;;2.10;99.90;;;;;;5021458;28;20213;-64
2021/11/09 06:06:39;;;;;;;14.00;9.10;;;2.10;99.90;;;;;;5029455;28;20527;-64
2021/11/09 06:09:04;;;;;;;14.83;9.90;;;2.10;99.90;;;;;;5022231;28;20604;-64
2021/11/09 06:11:30;;;;;;;13.67;10.70;;;2.00;99.90;;;;;;5025334;28;20241;-64
2021/11/09 06:13:56;;;;;;;10.43;9.33;;;2.00;99.90;;;;;;5022869;28;20182;-64
2021/11/09 06:16:22;;;;;;;10.47;8.27;;;2.00;99.90;;;;;;5018753;28;20171;-64
2021/11/09 06:18:47;;;;;;;10.77;8.43;;;2.00;99.90;;;;;;5026628;28;20222;-64
2021/11/09 06:21:13;;;;;;;9.47;8.47;;;2.00;99.90;;;;;;5021920;28;20178;-64
2021/11/09 06:23:38;;;;;;;16.70;10.20;;;2.00;99.90;;;;;;5024272;28;20189;-64
2021/11/09 06:26:04;;;;;;;12.27;8.73;;;2.00;99.90;;;;;;5014228;28;20183;-64
2021/11/09 06:28:30;;;;;;;12.60;8.87;;;2.00;99.90;;;;;;5018727;28;20195;-64
2021/11/09 06:30:56;;;;;;;12.60;10.20;;;2.00;99.90;;;;;;5016494;28;20171;-64
2021/11/09 06:33:22;;;;;;;12.60;8.83;;;2.00;99.90;;;;;;5013512;28;20552;-64
2021/11/09 06:35:48;;;;;;;19.70;12.10;;;2.00;99.90;;;;;;5009785;28;20198;-63
2021/11/09 06:38:14;;;;;;;16.37;11.17;;;2.00;99.90;;;;;;5014214;28;20503;-64
2021/11/09 06:40:39;;;;;;;12.17;9.83;;;2.00;99.90;;;;;;5015025;28;20480;-64
2021/11/09 06:43:06;;;;;;;12.70;9.70;;;2.00;99.90;;;;;;5013321;28;20854;-64
2021/11/09 06:45:32;;;;;;;14.13;10.40;;;2.00;99.90;;;;;;5013486;28;20622;-65
2021/11/09 06:47:58;;;;;;;14.87;8.90;;;2.10;99.90;;;;;;5012495;28;20545;-64
2021/11/09 06:50:25;;;;;;;12.23;10.97;;;2.10;99.90;;;;;;5013472;28;20520;-64
2021/11/09 06:52:50;;;;;;;17.20;9.00;;;2.20;99.90;;;;;;5013507;28;20612;-63
2021/11/09 06:55:16;;;;;;;15.50;11.97;;;2.30;99.90;;;;;;5012315;28;20448;-64
2021/11/09 06:57:44;;;;;;;35.00;17.10;;;2.40;99.90;;;;;;5012497;28;20229;-65
2021/11/09 07:00:14;;;;;;;21.23;12.80;;;2.70;99.90;;;;;;5013329;28;20172;-64
2021/11/09 07:02:40;;;;;;;20.17;14.03;;;3.00;99.90;;;;;;5012863;28;20462;-64
2021/11/09 07:05:07;;;;;;;16.93;13.33;;;3.40;99.90;;;;;;5008898;28;20430;-65
2021/11/09 07:07:33;;;;;;;18.37;12.27;;;3.90;99.90;;;;;;5000450;28;20457;-65
2021/11/09 07:09:58;;;;;;;15.43;11.80;;;4.30;99.90;;;;;;5005669;28;20495;-64
2021/11/09 07:12:24;;;;;;;16.83;11.83;;;4.80;99.90;;;;;;5012296;28;20245;-64
2021/11/09 07:14:50;;;;;;;17.97;10.97;;;5.30;99.90;;;;;;5012052;28;20579;-65
2021/11/09 07:17:16;;;;;;;15.57;11.07;;;5.70;99.90;;;;;;5012572;28;20207;-64
2021/11/09 07:19:47;;;;;;;14.90;12.20;;;6.10;99.90;;;;;;5012232;28;20433;-64
2021/11/09 07:22:12;;;;;;;14.43;11.90;;;6.60;99.90;;;;;;5012621;28;20433;-64
2021/11/09 07:24:38;;;;;;;16.83;11.00;;;6.90;99.90;;;;;;5012839;28;20433;-64
2021/11/09 07:27:04;;;;;;;16.93;10.70;;;7.20;99.90;;;;;;5012448;28;20189;-64
2021/11/09 07:29:29;;;;;;;21.53;11.67;;;7.80;99.90;;;;;;5012125;28;20190;-64
2021/11/09 07:31:56;;;;;;;15.60;10.83;;;8.30;99.90;;;;;;5012575;28;20602;-64
2021/11/09 07:34:22;;;;;;;15.23;9.53;;;8.80;99.90;;;;;;5008001;28;20191;-65
2021/11/09 07:36:47;;;;;;;15.00;11.00;;;9.30;99.90;;;;;;5001739;28;20434;-65
2021/11/09 07:39:13;;;;;;;12.53;8.87;;;9.70;99.90;;;;;;4989673;28;20340;-65
2021/11/09 07:41:42;;;;;;;12.33;9.30;;;10.20;99.90;;;;;;5002855;28;20191;-65
2021/11/09 07:44:08;;;;;;;13.73;12.33;;;10.70;99.90;;;;;;5005698;28;20655;-65
2021/11/09 07:46:35;;;;;;;17.13;10.80;;;11.00;99.90;;;;;;5005957;28;20461;-65
2021/11/09 07:49:02;;;;;;;11.10;10.00;;;11.10;99.90;;;;;;5003013;28;20469;-65
2021/11/09 07:51:28;;;;;;;10.67;9.53;;;11.70;99.90;;;;;;5006713;28;20426;-65
2021/11/09 07:53:57;;;;;;;14.93;10.10;;;12.50;99.90;;;;;;5010040;28;20433;-65
2021/11/09 07:56:24;;;;;;;12.10;11.00;;;12.50;99.90;;;;;;5006731;28;20434;-65
2021/11/09 08:01:41;;;;;;;14.47;10.90;;;13.70;99.90;;;;;;5005929;28;20421;-65
2021/11/09 08:04:31;;;;;;;12.87;11.13;;;14.20;99.90;;;;;;5008617;28;20503;-65
2021/11/09 08:07:32;;;;;;;13.10;11.70;;;14.80;98.70;;;;;;4997407;28;20475;-66
2021/11/09 08:09:49;;;;;;;15.33;10.27;;;15.00;97.70;;;;;;4999622;28;20981;-65
2021/11/09 08:12:15;;;;;;;13.63;10.90;;;15.60;96.30;;;;;;5003152;28;20470;-67
2021/11/09 08:14:40;;;;;;;12.40;11.17;;;15.80;95.90;;;;;;5003459;28;20175;-66
2021/11/09 08:17:07;;;;;;;13.50;12.07;;;16.20;94.80;;;;;;4999733;28;20459;-65
2021/11/09 08:19:33;;;;;;;13.60;10.43;;;16.10;94.90;;;;;;5003550;28;20233;-66
2021/11/09 08:21:59;;;;;;;10.97;9.70;;;16.50;93.80;;;;;;5003746;28;20809;-66
2021/11/09 08:24:26;;;;;;;11.30;10.10;;;16.70;93.20;;;;;;5002680;28;20205;-67
2021/11/09 08:26:55;;;;;;;11.83;10.00;;;16.90;92.30;;;;;;5002685;28;20433;-68
2021/11/09 08:29:26;;;;;;;13.30;9.47;;;16.70;91.80;;;;;;5003258;28;20429;-67
2021/11/09 08:31:53;;;;;;;9.57;8.70;;;16.60;91.80;;;;;;5011250;28;20468;-66
2021/11/09 08:34:19;;;;;;;11.37;10.17;;;17.00;91.50;;;;;;5002528;28;20445;-66
2021/11/09 08:36:45;;;;;;;16.83;11.03;;;16.90;90.30;;;;;;5002104;28;20456;-66
2021/11/09 08:39:17;;;;;;;12.63;10.47;;;17.10;91.10;;;;;;5000312;28;20461;-66
2021/11/09 08:41:56;;;;;;;11.60;10.50;;;17.20;90.10;;;;;;5006539;28;20855;-66
2021/11/09 08:44:26;;;;;;;10.57;9.57;;;17.90;88.40;;;;;;5006241;28;20467;-66
2021/11/09 08:46:54;;;;;;;9.93;8.93;;;18.60;86.40;;;;;;4999103;28;20507;-67
2021/11/09 08:49:22;;;;;;;11.60;10.50;;;19.40;82.30;;;;;;5006324;28;20963;-66
2021/11/09 08:51:50;;;;;;;19.63;17.43;;;19.30;80.10;;;;;;5003057;28;20488;-67
2021/11/09 08:54:36;;;;;;;10.47;9.47;;;18.60;79.10;;;;;;5002314;28;20485;-66
2021/11/09 09:05:12;;;;;;;12.47;10.30;;;20.80;71.10;;;;;;4993639;28;20457;-65
2021/11/09 09:07:39;;;;;;;11.17;10.17;;;21.00;69.20;;;;;;4998829;28;20464;-66
2021/11/09 09:10:14;;;;;;;11.30;9.23;;;21.10;67.30;;;;;;5002469;28;20530;-65
2021/11/09 09:12:42;;;;;;;11.00;10.00;;;21.00;67.10;;;;;;5002472;28;20472;-66
2021/11/09 09:15:11;;;;;;;10.27;9.27;;;21.50;64.90;;;;;;5002077;28;20531;-66
2021/11/09 09:17:37;;;;;;;11.00;9.10;;;21.30;62.90;;;;;;4999941;28;20481;-67
2021/11/09 09:20:10;;;;;;;14.00;10.23;;;21.40;63.70;;;;;;5003756;28;21936;-66
2021/11/09 09:22:42;;;;;;;11.63;6.37;;;21.20;63.90;;;;;;5004302;28;20664;-65
2021/11/09 09:25:20;;;;;;;10.43;8.33;;;21.20;61.90;;;;;;5002395;28;20437;-65
2021/11/09 09:30:35;;;;;;;8.13;7.30;;;22.00;60.70;;;;;;5001815;28;20857;-66
2021/11/09 09:57:27;;;;;;;7.80;7.13;;;24.40;51.10;;;;;;5000889;28;20446;-66
2021/11/09 09:59:53;;;;;;;9.80;8.87;;;24.30;51.10;;;;;;5004167;28;20175;-66
2021/11/09 10:02:25;;;;;;;9.87;8.87;;;24.10;50.50;;;;;;5004978;28;20441;-66
2021/11/09 10:05:17;;;;;;;14.33;9.20;;;25.00;50.50;;;;;;5008167;28;20434;-67
2021/11/09 10:07:49;;;;;;;8.77;7.90;;;25.80;48.40;;;;;;5009022;28;20491;-66
2021/11/09 10:10:17;;;;;;;14.83;9.30;;;25.00;48.30;;;;;;5005042;28;20441;-67
2021/11/09 10:12:45;;;;;;;9.07;8.27;;;25.10;47.70;;;;;;5005890;28;20465;-68
2021/11/09 10:15:19;;;;;;;11.47;9.83;;;24.40;48.30;;;;;;5003778;28;20520;-66
2021/11/09 10:17:47;;;;;;;11.33;8.70;;;24.60;48.30;;;;;;5003559;28;22006;-66
2021/11/09 10:20:26;;;;;;;11.73;8.50;;;24.70;48.50;;;;;;5005340;28;20438;-65
2021/11/09 10:23:00;;;;;;;10.13;9.03;;;25.60;47.70;;;;;;5006694;28;20429;-66
2021/11/09 10:25:28;;;;;;;13.53;9.70;;;26.00;46.00;;;;;;5005368;28;20436;-65
2021/11/09 10:27:59;;;;;;;10.07;9.07;;;25.40;46.80;;;;;;5002219;28;20485;-65
2021/11/09 10:30:29;;;;;;;9.07;7.93;;;25.90;46.00;;;;;;5005654;28;20529;-67
2021/11/09 10:32:55;;;;;;;10.37;8.70;;;25.80;46.00;;;;;;5005288;28;20544;-66
2021/11/09 10:35:22;;;;;;;11.33;8.80;;;27.20;44.80;;;;;;5006297;28;20437;-65
2021/11/09 10:37:53;;;;;;;10.00;9.10;;;27.10;44.10;;;;;;5002535;28;21383;-66
2021/11/09 10:40:22;;;;;;;10.60;7.13;;;27.40;43.40;;;;;;5004938;28;20465;-65
2021/11/09 10:42:50;;;;;;;8.13;7.27;;;27.30;42.80;;;;;;5005078;28;20438;-65
2021/11/09 10:45:22;;;;;;;8.97;6.63;;;26.70;42.90;;;;;;5004606;28;20442;-65
2021/11/09 10:47:54;;;;;;;11.40;7.23;;;26.80;43.30;;;;;;5000912;28;20461;-66
2021/11/09 10:50:35;;;;;;;10.10;7.60;;;26.30;42.70;;;;;;5011248;28;20442;-66
2021/11/09 10:53:14;;;;;;;6.83;5.80;;;26.50;42.50;;;;;;5007475;28;21004;-66
2021/11/09 10:55:54;;;;;;;7.30;6.07;;;27.30;42.30;;;;;;5007506;28;20440;-65
2021/11/09 11:06:27;;;;;;;7.43;5.30;;;27.80;41.20;;;;;;5005425;28;20449;-65
2021/11/09 11:09:13;;;;;;;7.17;4.53;;;28.00;40.00;;;;;;5001393;28;20580;-66
2021/11/09 11:11:45;;;;;;;7.13;5.17;;;27.70;39.70;;;;;;5005726;28;20479;-65
2021/11/09 11:14:10;;;;;;;6.30;4.80;;;26.80;40.10;;;;;;5004671;28;20465;-66
2021/11/09 11:16:51;;;;;;;7.40;5.73;;;25.30;41.00;;;;;;5008739;28;20426;-65
2021/11/09 11:19:26;;;;;;;5.83;4.17;;;23.30;43.40;;;;;;5003588;28;20234;-64
2021/11/09 11:21:52;;;;;;;7.30;5.23;;;22.90;44.20;;;;;;5004460;28;21271;-64
2021/11/09 11:24:21;;;;;;;5.50;4.63;;;22.40;44.60;;;;;;5004059;28;20536;-66
2021/11/09 11:26:48;;;;;;;6.93;4.10;;;21.20;44.90;;;;;;5002793;28;20513;-64
2021/11/09 11:29:25;;;;;;;5.27;4.73;;;20.00;48.30;;;;;;5002212;28;20457;-65
2021/11/09 11:31:52;;;;;;;7.30;4.50;;;20.60;47.10;;;;;;5003946;28;20515;-65
2021/11/09 11:34:23;;;;;;;4.30;3.90;;;20.50;47.60;;;;;;5003577;28;20950;-64
2021/11/09 11:36:50;;;;;;;7.00;4.23;;;20.20;47.30;;;;;;5001933;28;20464;-64
2021/11/09 11:39:18;;;;;;;7.80;4.37;;;20.40;47.20;;;;;;5002122;28;20853;-65
2021/11/09 11:41:46;;;;;;;4.23;3.80;;;20.90;47.00;;;;;;5002548;28;20448;-66
2021/11/09 11:44:19;;;;;;;12.70;4.10;;;21.20;46.90;;;;;;5006110;28;20464;-65
2021/11/09 11:46:47;;;;;;;8.20;4.00;;;22.20;46.10;;;;;;5001451;28;20438;-66
2021/11/09 11:49:24;;;;;;;3.93;3.63;;;22.00;45.80;;;;;;5004452;28;20500;-67
2021/11/09 11:51:50;;;;;;;7.07;4.60;;;22.70;44.80;;;;;;5004255;28;20475;-66
2021/11/09 11:54:35;;;;;;;7.67;4.20;;;21.70;45.50;;;;;;5000120;28;20442;-64
2021/11/09 11:57:01;;;;;;;5.93;3.57;;;21.10;45.60;;;;;;5000423;28;20187;-65
2021/11/09 11:59:27;;;;;;;10.00;4.30;;;20.30;47.30;;;;;;5002393;28;20798;-65
2021/11/09 12:01:56;;;;;;;6.43;4.50;;;19.80;48.20;;;;;;5002029;28;20495;-67
2021/11/09 12:04:40;;;;;;;4.57;3.93;;;19.90;49.70;;;;;;5006146;28;20268;-67
2021/11/09 12:07:07;;;;;;;5.47;4.43;;;21.40;46.30;;;;;;5006065;28;20580;-65
2021/11/09 12:09:36;;;;;;;5.50;4.00;;;19.90;47.30;;;;;;5002951;28;20532;-66
2021/11/09 12:12:20;;;;;;;5.37;4.10;;;20.30;47.50;;;;;;5003268;28;20531;-66
2021/11/09 12:14:46;;;;;;;5.37;4.37;;;21.30;46.40;;;;;;5002938;28;20436;-64
2021/11/09 12:17:25;;;;;;;6.90;4.30;;;21.50;45.40;;;;;;5011256;28;20437;-66
2021/11/09 12:19:51;;;;;;;5.47;3.60;;;21.60;45.80;;;;;;5007761;28;20560;-69
2021/11/09 12:22:18;;;;;;;7.57;4.57;;;21.30;46.00;;;;;;5002625;28;20536;-67
2021/11/09 12:24:58;;;;;;;4.33;3.93;;;20.90;45.80;;;;;;5003851;28;20626;-66
2021/11/09 12:27:30;;;;;;;5.60;4.10;;;20.80;47.30;;;;;;5003764;28;20453;-66
2021/11/09 12:29:56;;;;;;;4.93;3.83;;;20.50;47.00;;;;;;5002939;28;20432;-66
2021/11/09 12:32:30;;;;;;;5.73;3.77;;;20.40;46.50;;;;;;5007899;28;20467;-67
2021/11/09 12:35:02;;;;;;;3.93;3.63;;;21.30;46.70;;;;;;5005848;28;20535;-67
2021/11/09 12:37:30;;;;;;;3.80;3.30;;;22.00;45.50;;;;;;5006217;28;20523;-66
2021/11/09 12:40:24;;;;;;;4.40;3.80;;;23.10;44.60;;;;;;5006888;28;20438;-66
2021/11/09 12:43:12;;;;;;;3.60;3.20;;;22.50;44.10;;;;;;5004514;28;20436;-66
2021/11/09 12:45:50;;;;;;;5.63;3.77;;;23.40;43.50;;;;;;5006571;28;20426;-66
2021/11/09 12:48:27;;;;;;;5.20;4.20;;;23.60;43.30;;;;;;5000018;28;20484;-66
2021/11/09 12:50:59;;;;;;;5.73;3.50;;;23.90;42.30;;;;;;5003791;28;20947;-67
2021/11/09 12:53:26;;;;;;;6.20;4.40;;;22.80;43.00;;;;;;5002687;28;20966;-66
2021/11/09 12:56:05;;;;;;;4.47;4.00;;;21.60;44.00;;;;;;5002951;28;20439;-67
2021/11/09 12:58:35;;;;;;;6.53;3.90;;;21.30;45.20;;;;;;4999373;28;20442;-66
2021/11/09 13:01:02;;;;;;;6.63;4.23;;;21.20;45.30;;;;;;5002663;28;20441;-66
2021/11/09 13:03:39;;;;;;;5.20;4.33;;;21.90;44.30;;;;;;5002807;28;20441;-66
2021/11/09 13:06:18;;;;;;;6.37;4.63;;;21.10;44.90;;;;;;5002436;28;20789;-65
2021/11/09 13:09:06;;;;;;;8.63;4.20;;;21.20;45.30;;;;;;4999710;28;20827;-66
2021/11/09 13:11:38;;;;;;;4.30;3.90;;;21.20;45.50;;;;;;5001642;28;20448;-65
2021/11/09 13:14:06;;;;;;;5.27;3.60;;;21.40;45.30;;;;;;5005934;28;20435;-67
2021/11/09 13:16:32;;;;;;;5.77;3.70;;;21.00;45.60;;;;;;5009512;28;20429;-66
2021/11/09 13:19:06;;;;;;;7.10;4.37;;;22.00;44.60;;;;;;5010121;28;20958;-67
2021/11/09 13:21:37;;;;;;;5.10;4.20;;;21.40;44.90;;;;;;5012266;28;20465;-67
2021/11/09 13:24:03;;;;;;;4.37;3.70;;;21.10;44.80;;;;;;5013630;28;20425;-66
2021/11/09 13:26:29;;;;;;;6.33;4.20;;;20.80;45.60;;;;;;5009236;28;20520;-65
2021/11/09 13:28:56;;;;;;;6.60;4.57;;;20.00;45.50;;;;;;5005930;28;20536;-67
2021/11/09 13:31:30;;;;;;;4.67;4.27;;;19.40;47.40;;;;;;5009460;28;20250;-66
2021/11/09 13:33:56;;;;;;;5.80;3.80;;;19.80;46.50;;;;;;5012746;28;20503;-66
2021/11/09 13:36:22;;;;;;;4.07;3.67;;;19.70;47.20;;;;;;5008985;28;21089;-66
2021/11/09 13:38:47;;;;;;;9.43;3.60;;;20.90;46.10;;;;;;5015195;28;20465;-66
2021/11/09 13:41:18;;;;;;;4.97;3.73;;;20.90;46.10;;;;;;5009561;28;20632;-66
2021/11/09 13:43:56;;;;;;;8.40;5.00;;;19.10;47.50;;;;;;5008671;28;20531;-65
2021/11/09 13:46:25;;;;;;;5.77;5.27;;;17.90;49.90;;;;;;5011534;28;20959;-66
2021/11/09 13:48:53;;;;;;;5.77;5.03;;;16.20;51.70;;;;;;5004937;28;20460;-66
2021/11/09 13:51:28;;;;;;;9.50;4.37;;;14.60;54.20;;;;;;5008610;28;20438;-66
2021/11/09 13:54:05;;;;;;;5.57;4.13;;;13.70;56.60;;;;;;5008801;28;20436;-67
2021/11/09 13:56:31;;;;;;;10.30;4.30;;;12.80;58.30;;;;;;5009285;28;20500;-66
2021/11/09 13:59:10;;;;;;;3.53;3.03;;;12.10;59.80;;;;;;5005441;28;20477;-65
2021/11/09 14:01:50;;;;;;;7.00;3.97;;;11.90;61.50;;;;;;5008895;28;20444;-66
2021/11/09 14:10:38;;;;;;;4.23;3.50;;;10.90;65.90;;;;;;5007626;28;20811;-65
2021/11/09 14:18:14;;;;;;;3.77;3.40;;;10.70;68.30;;;;;;5010177;28;20453;-66
2021/11/09 14:20:54;;;;;;;4.73;3.67;;;10.60;69.40;;;;;;5012798;28;20456;-66
2021/11/09 14:23:28;;;;;;;5.63;3.87;;;10.60;70.50;;;;;;5013480;28;20631;-66
2021/11/09 14:25:53;;;;;;;5.07;4.00;;;10.70;71.10;;;;;;5012051;28;20442;-66
2021/11/09 14:28:38;;;;;;;4.20;3.40;;;10.60;72.00;;;;;;5004156;28;20840;-66
2021/11/09 14:31:11;;;;;;;4.03;3.63;;;10.40;72.30;;;;;;5012590;28;20195;-67
2021/11/09 14:33:37;;;;;;;6.90;4.40;;;10.40;72.60;;;;;;5012945;28;20462;-67
2021/11/09 14:36:03;;;;;;;6.40;3.90;;;10.40;73.20;;;;;;5012423;28;20487;-67
2021/11/09 14:38:29;;;;;;;5.20;3.67;;;10.30;73.90;;;;;;5004898;28;20482;-66
2021/11/09 14:40:57;;;;;;;8.77;4.40;;;10.30;75.10;;;;;;5007622;28;20179;-65
2021/11/09 14:43:30;;;;;;;4.80;3.60;;;10.30;75.90;;;;;;5007876;28;20442;-66
2021/11/09 14:46:11;;;;;;;4.80;4.17;;;10.20;76.30;;;;;;5007540;28;20460;-66
2021/11/09 14:49:01;;;;;;;5.93;3.60;;;10.20;77.20;;;;;;5004837;28;21655;-65
2021/11/09 14:53:59;;;;;;;3.60;3.30;;;10.10;78.20;;;;;;5007742;28;20481;-65
2021/11/09 14:56:33;;;;;;;4.47;3.10;;;10.10;78.20;;;;;;5007987;28;20535;-67
2021/11/09 14:59:00;;;;;;;4.23;3.20;;;10.00;78.80;;;;;;5004190;28;20446;-67
2021/11/09 15:01:30;;;;;;;3.83;2.93;;;9.90;79.60;;;;;;5006916;28;20448;-66
2021/11/09 15:04:18;;;;;;;9.37;3.57;;;9.90;80.40;;;;;;5007694;28;20430;-66
2021/11/09 15:09:31;;;;;;;7.53;4.53;;;9.90;82.10;;;;;;5006238;28;20489;-67
2021/11/09 15:31:00;;;;;;;8.70;4.20;;;9.70;88.60;;;;;;5006218;28;20440;-67